Time;durP1;ratioP1;P1;durP2;ratioP2;P2;SDS_P1;SDS_P2;PMS_P1;PMS_P2;Temp;Humidity;BMP_temperature;BMP_pressure;BME280_temperature;BME280_humidity;BME280_pressure;Samples;Min_cycle;Max_cycle;Signal;HPM_P1;HPM_P2
2022/09/20 00:01:28;;;;;;;3.93;2.30;;;;;;;;;;5116077;27;20226;-66
2022/09/20 00:03:57;;;;;;;5.33;2.30;;;;;;;;;;5115440;27;20586;-65
2022/09/20 00:06:28;;;;;;;5.60;2.17;;;;;;;;;;5113963;27;20302;-66
2022/09/20 00:08:56;;;;;;;6.03;2.60;;;;;;;;;;5115791;27;20302;-65
2022/09/20 00:11:24;;;;;;;4.63;2.60;;;;;;;;;;5115686;27;20315;-65
2022/09/20 00:13:53;;;;;;;3.33;2.20;;;;;;;;;;5115777;27;20667;-66
2022/09/20 00:16:28;;;;;;;4.10;2.53;;;;;;;;;;5115749;27;20199;-64
2022/09/20 00:18:57;;;;;;;6.77;2.10;;;;;;;;;;5115546;27;20229;-65
2022/09/20 00:21:26;;;;;;;4.53;2.20;;;;;;;;;;5115742;27;20299;-65
2022/09/20 00:23:53;;;;;;;5.57;2.50;;;;;;;;;;5133912;27;20310;-64
2022/09/20 00:26:21;;;;;;;6.27;2.67;;;;;;;;;;5114935;27;20309;-65
2022/09/20 00:28:49;;;;;;;3.50;2.67;;;;;;;;;;5115236;27;20207;-66
2022/09/20 00:31:16;;;;;;;3.27;2.03;;;;;;;;;;5115294;27;20274;-65
2022/09/20 00:36:31;;;;;;;3.17;2.30;;;;;;;;;;5133801;27;20207;-66
2022/09/20 00:38:59;;;;;;;3.17;2.17;;;;;;;;;;5115408;27;20203;-66
2022/09/20 00:41:26;;;;;;;5.23;2.27;;;;;;;;;;5115065;27;20636;-65
2022/09/20 00:43:54;;;;;;;3.50;2.10;;;;;;;;;;5115061;27;20699;-66
2022/09/20 00:46:31;;;;;;;4.80;2.43;;;;;;;;;;5119628;27;20424;-63
2022/09/20 00:49:03;;;;;;;3.87;2.17;;;;;;;;;;5135710;27;20225;-63
2022/09/20 00:51:33;;;;;;;5.60;2.37;;;;;;;;;;5135963;27;20206;-63
2022/09/20 00:54:01;;;;;;;3.53;2.43;;;;;;;;;;5135370;27;20302;-65
2022/09/20 00:56:30;;;;;;;3.80;2.17;;;;;;;;;;5135354;27;20630;-65
2022/09/20 00:58:58;;;;;;;4.93;2.20;;;;;;;;;;5118454;27;20216;-64
2022/09/20 01:01:25;;;;;;;7.33;2.33;;;;;;;;;;5115109;27;20225;-65
2022/09/20 01:03:54;;;;;;;6.67;2.07;;;;;;;;;;5115432;27;20227;-65
2022/09/20 01:06:21;;;;;;;3.10;1.73;;;;;;;;;;5111716;27;20684;-65
2022/09/20 01:08:50;;;;;;;6.17;1.80;;;;;;;;;;5114658;27;20727;-64
2022/09/20 01:11:18;;;;;;;7.20;2.00;;;;;;;;;;5114778;27;20237;-64
2022/09/20 01:13:45;;;;;;;2.97;1.90;;;;;;;;;;5114815;27;20219;-63
2022/09/20 01:16:14;;;;;;;4.60;2.30;;;;;;;;;;5114465;27;20214;-64
2022/09/20 01:18:42;;;;;;;5.20;2.03;;;;;;;;;;5114594;27;20204;-65
2022/09/20 01:21:10;;;;;;;2.97;2.50;;;;;;;;;;5115089;27;20733;-64
2022/09/20 01:23:57;;;;;;;6.73;2.53;;;;;;;;;;5132538;27;20207;-65
2022/09/20 01:26:42;;;;;;;4.43;2.90;;;;;;;;;;5114130;27;20775;-64
2022/09/20 01:29:18;;;;;;;4.07;2.60;;;;;;;;;;5114097;27;20291;-64
2022/09/20 01:31:54;;;;;;;3.90;2.50;;;;;;;;;;5114463;27;20239;-65
2022/09/20 01:34:32;;;;;;;5.93;2.30;;;;;;;;;;5114370;27;20774;-63
2022/09/20 01:36:59;;;;;;;5.13;2.90;;;;;;;;;;5115205;27;20311;-64
2022/09/20 01:39:44;;;;;;;3.23;2.60;;;;;;;;;;5134976;27;20242;-64
2022/09/20 01:42:13;;;;;;;6.07;2.57;;;;;;;;;;5134757;27;20311;-65
2022/09/20 01:44:59;;;;;;;4.90;2.80;;;;;;;;;;5114003;27;20298;-65
2022/09/20 01:47:39;;;;;;;5.53;3.17;;;;;;;;;;5113505;27;20230;-64
2022/09/20 01:50:12;;;;;;;5.03;2.63;;;;;;;;;;5113962;27;20554;-65
2022/09/20 01:52:39;;;;;;;5.23;2.30;;;;;;;;;;5113679;27;20291;-65
2022/09/20 01:55:14;;;;;;;4.00;2.07;;;;;;;;;;5114302;27;20231;-65
2022/09/20 01:57:47;;;;;;;4.33;2.10;;;;;;;;;;5113271;27;20207;-65
2022/09/20 02:00:14;;;;;;;2.57;1.90;;;;;;;;;;5113774;27;20575;-65
2022/09/20 02:03:11;;;;;;;4.47;2.53;;;;;;;;;;5113741;27;20290;-65
2022/09/20 02:05:57;;;;;;;7.50;2.13;;;;;;;;;;5097075;27;20227;-64
2022/09/20 02:08:31;;;;;;;3.77;2.33;;;;;;;;;;5113859;27;20206;-64
2022/09/20 02:11:10;;;;;;;5.90;2.67;;;;;;;;;;5113606;27;20299;-64
2022/09/20 02:13:54;;;;;;;4.87;2.40;;;;;;;;;;5112995;27;20199;-65
2022/09/20 02:16:39;;;;;;;5.47;2.20;;;;;;;;;;5113198;27;20207;-64
2022/09/20 02:19:07;;;;;;;7.17;2.60;;;;;;;;;;5113247;27;20657;-65
2022/09/20 02:21:42;;;;;;;7.70;2.67;;;;;;;;;;5113481;27;20289;-65
2022/09/20 02:24:29;;;;;;;5.70;2.80;;;;;;;;;;5113465;27;20254;-65
2022/09/20 02:27:02;;;;;;;4.13;2.60;;;;;;;;;;5113625;27;20764;-65
2022/09/20 02:29:30;;;;;;;4.33;2.60;;;;;;;;;;5113390;27;20687;-64
2022/09/20 02:32:00;;;;;;;6.23;2.33;;;;;;;;;;5113667;27;20235;-64
2022/09/20 02:34:28;;;;;;;7.33;2.83;;;;;;;;;;5112832;27;20215;-65
2022/09/20 02:36:55;;;;;;;6.37;2.60;;;;;;;;;;5112224;27;20607;-65
2022/09/20 02:39:42;;;;;;;5.83;3.20;;;;;;;;;;5112799;28;20196;-65
2022/09/20 02:42:33;;;;;;;8.50;2.70;;;;;;;;;;5112562;27;20285;-65
2022/09/20 02:45:08;;;;;;;5.50;2.57;;;;;;;;;;5119951;27;20257;-65
2022/09/20 02:47:41;;;;;;;7.80;2.80;;;;;;;;;;5112281;28;20681;-65
2022/09/20 02:50:14;;;;;;;5.97;2.57;;;;;;;;;;5113166;28;20295;-65
2022/09/20 02:52:50;;;;;;;2.63;2.43;;;;;;;;;;5113345;28;20244;-64
2022/09/20 02:55:24;;;;;;;6.23;2.73;;;;;;;;;;5112107;28;20298;-65
2022/09/20 02:58:06;;;;;;;5.17;2.40;;;;;;;;;;5112549;28;20202;-65
2022/09/20 03:00:43;;;;;;;3.93;2.40;;;;;;;;;;5130646;28;20233;-65
2022/09/20 03:03:17;;;;;;;3.97;2.20;;;;;;;;;;5112813;28;20606;-66
2022/09/20 03:05:56;;;;;;;9.77;2.80;;;;;;;;;;5111551;28;20221;-65
2022/09/20 03:08:36;;;;;;;5.40;2.40;;;;;;;;;;5112537;28;20692;-65
2022/09/20 03:11:10;;;;;;;12.30;2.60;;;;;;;;;;5112499;28;20288;-66
2022/09/20 03:13:52;;;;;;;3.90;2.30;;;;;;;;;;5112243;28;20286;-65
2022/09/20 03:16:31;;;;;;;4.20;2.27;;;;;;;;;;5130348;28;20262;-64
2022/09/20 03:19:02;;;;;;;6.10;2.67;;;;;;;;;;5132117;27;20192;-65
2022/09/20 03:22:02;;;;;;;6.73;2.63;;;;;;;;;;5112397;28;20771;-65
2022/09/20 03:24:35;;;;;;;4.87;2.60;;;;;;;;;;5057417;28;20278;-65
2022/09/20 03:27:17;;;;;;;6.43;2.57;;;;;;;;;;5112283;28;20330;-66
2022/09/20 03:29:58;;;;;;;8.17;2.70;;;;;;;;;;5122295;28;20270;-64
2022/09/20 03:32:36;;;;;;;4.97;2.27;;;;;;;;;;5112335;28;20238;-66
2022/09/20 03:35:18;;;;;;;3.93;2.67;;;;;;;;;;5112310;28;20775;-63
2022/09/20 03:38:06;;;;;;;6.07;2.67;;;;;;;;;;5129819;27;20310;-65
2022/09/20 03:40:52;;;;;;;7.00;2.63;;;;;;;;;;5124739;28;20274;-65
2022/09/20 03:43:41;;;;;;;4.73;2.30;;;;;;;;;;5130530;28;20577;-66
2022/09/20 03:46:27;;;;;;;5.73;2.30;;;;;;;;;;5112077;28;20369;-65
2022/09/20 03:49:13;;;;;;;4.30;2.43;;;;;;;;;;5111947;28;20200;-66
2022/09/20 03:51:47;;;;;;;4.67;2.50;;;;;;;;;;5112006;28;20226;-64
2022/09/20 03:54:14;;;;;;;4.40;2.60;;;;;;;;;;5108249;28;20230;-65
2022/09/20 03:56:54;;;;;;;5.90;2.40;;;;;;;;;;5111614;28;20397;-65
2022/09/20 03:59:24;;;;;;;5.57;2.63;;;;;;;;;;5111287;28;20211;-64
2022/09/20 04:01:51;;;;;;;3.63;2.10;;;;;;;;;;5133780;27;20200;-65
2022/09/20 04:04:36;;;;;;;5.67;2.90;;;;;;;;;;5114793;27;20231;-64
2022/09/20 04:07:03;;;;;;;6.47;2.77;;;;;;;;;;5115497;27;20273;-64
2022/09/20 04:09:49;;;;;;;5.20;2.60;;;;;;;;;;5115355;27;20278;-65
2022/09/20 04:12:35;;;;;;;6.57;2.50;;;;;;;;;;5113450;27;20206;-65
2022/09/20 04:15:26;;;;;;;6.83;2.77;;;;;;;;;;5115553;27;20399;-65
2022/09/20 04:18:12;;;;;;;5.53;2.87;;;;;;;;;;5084516;28;20303;-65
2022/09/20 04:20:39;;;;;;;5.57;3.10;;;;;;;;;;5094974;28;20640;-64
2022/09/20 04:23:22;;;;;;;4.40;2.83;;;;;;;;;;5094849;28;20748;-66
2022/09/20 04:25:50;;;;;;;5.87;3.37;;;;;;;;;;5094921;28;20751;-64
2022/09/20 04:28:30;;;;;;;7.70;4.03;;;;;;;;;;5108558;27;20233;-64
2022/09/20 04:31:03;;;;;;;3.60;3.20;;;;;;;;;;5115193;27;20286;-65
2022/09/20 04:33:34;;;;;;;5.50;3.30;;;;;;;;;;5115745;27;20271;-65
2022/09/20 04:36:27;;;;;;;8.83;3.30;;;;;;;;;;5115223;27;20278;-65
2022/09/20 04:39:13;;;;;;;7.23;3.30;;;;;;;;;;5115318;27;20230;-64
2022/09/20 04:41:59;;;;;;;3.70;2.47;;;;;;;;;;5115666;27;20282;-65
2022/09/20 04:44:44;;;;;;;6.30;2.57;;;;;;;;;;5115886;27;20223;-65
2022/09/20 04:47:30;;;;;;;2.57;2.37;;;;;;;;;;5114549;27;20229;-65
2022/09/20 04:50:01;;;;;;;4.40;2.80;;;;;;;;;;5115268;27;20606;-65
2022/09/20 04:52:47;;;;;;;6.20;2.57;;;;;;;;;;5115038;27;20339;-65
2022/09/20 04:55:29;;;;;;;7.07;2.63;;;;;;;;;;5115671;27;20306;-65
2022/09/20 04:58:03;;;;;;;6.13;2.60;;;;;;;;;;5114847;27;20684;-65
2022/09/20 05:00:54;;;;;;;7.53;2.70;;;;;;;;;;5115068;27;20290;-65
2022/09/20 05:03:48;;;;;;;2.73;2.47;;;;;;;;;;5079569;27;20214;-65
2022/09/20 05:06:31;;;;;;;5.03;3.50;;;;;;;;;;5087590;28;20573;-63
2022/09/20 05:09:12;;;;;;;7.30;3.47;;;;;;;;;;5094221;28;20204;-65
2022/09/20 05:11:52;;;;;;;8.70;3.80;;;;;;;;;;5093968;28;20204;-65
2022/09/20 05:14:35;;;;;;;4.87;2.73;;;;;;;;;;5093873;28;20662;-65
2022/09/20 05:17:20;;;;;;;6.27;3.30;;;;;;;;;;5094210;28;20204;-64
2022/09/20 05:19:54;;;;;;;6.50;3.20;;;;;;;;;;5129672;27;20210;-66
2022/09/20 05:22:24;;;;;;;6.83;3.00;;;;;;;;;;5135039;27;20661;-65
2022/09/20 05:25:11;;;;;;;5.87;2.97;;;;;;;;;;5134550;27;20227;-65
2022/09/20 05:27:46;;;;;;;5.10;2.67;;;;;;;;;;5128956;27;20215;-65
2022/09/20 05:30:13;;;;;;;3.57;2.70;;;;;;;;;;5113906;27;20199;-65
2022/09/20 05:32:59;;;;;;;8.17;2.83;;;;;;;;;;5113928;27;20794;-63
2022/09/20 05:35:30;;;;;;;5.97;2.43;;;;;;;;;;5119707;27;20222;-65
2022/09/20 05:38:01;;;;;;;4.97;2.53;;;;;;;;;;5127240;27;20195;-64
2022/09/20 05:40:59;;;;;;;4.50;2.47;;;;;;;;;;5113676;27;20276;-65
2022/09/20 05:43:29;;;;;;;3.73;2.20;;;;;;;;;;5113301;27;20204;-64
2022/09/20 05:46:02;;;;;;;6.33;2.23;;;;;;;;;;5113465;27;20210;-63
2022/09/20 05:48:39;;;;;;;4.03;2.70;;;;;;;;;;5113837;27;20314;-65
2022/09/20 05:51:12;;;;;;;6.47;2.77;;;;;;;;;;5113660;27;20246;-65
2022/09/20 05:53:39;;;;;;;5.70;2.57;;;;;;;;;;5121620;27;20196;-65
2022/09/20 05:56:22;;;;;;;6.17;2.03;;;;;;;;;;5110570;27;20546;-65
2022/09/20 05:58:49;;;;;;;3.53;1.83;;;;;;;;;;5113159;27;20245;-65
2022/09/20 06:01:40;;;;;;;6.10;2.30;;;;;;;;;;5113273;27;20242;-64
2022/09/20 06:04:23;;;;;;;5.00;2.20;;;;;;;;;;5102954;27;20227;-64
2022/09/20 06:07:09;;;;;;;2.87;1.87;;;;;;;;;;5131528;27;20623;-65
2022/09/20 06:10:08;;;;;;;6.27;2.60;;;;;;;;;;5115938;27;20695;-64
2022/09/20 06:12:42;;;;;;;6.43;2.90;;;;;;;;;;5059447;27;20645;-66
2022/09/20 06:15:14;;;;;;;7.77;2.93;;;;;;;;;;5113183;27;20287;-65
2022/09/20 06:17:55;;;;;;;4.47;2.80;;;;;;;;;;5113406;27;20196;-64
2022/09/20 06:20:22;;;;;;;5.70;3.00;;;;;;;;;;5113002;27;20204;-65
2022/09/20 06:22:51;;;;;;;5.43;2.63;;;;;;;;;;5112530;27;20226;-65
2022/09/20 06:25:22;;;;;;;3.60;2.20;;;;;;;;;;5113043;27;20286;-65
2022/09/20 06:27:55;;;;;;;4.37;2.60;;;;;;;;;;5123083;27;20223;-65
2022/09/20 06:30:33;;;;;;;4.40;2.47;;;;;;;;;;5112642;27;20206;-65
2022/09/20 06:33:07;;;;;;;3.10;2.20;;;;;;;;;;5131619;27;20574;-64
2022/09/20 06:35:41;;;;;;;7.17;2.47;;;;;;;;;;5112572;27;20308;-65
2022/09/20 06:43:51;;;;;;;5.43;3.00;;;;;;;;;;5139441;27;20283;-65
2022/09/20 06:46:18;;;;;;;6.10;3.13;;;;;;;;;;5132928;27;20206;-65
2022/09/20 06:48:46;;;;;;;6.67;3.53;;;;;;;;;;5132995;27;20313;-65
2022/09/20 06:51:13;;;;;;;11.07;4.10;;;;;;;;;;5133493;27;20275;-64
2022/09/20 06:53:41;;;;;;;9.33;3.80;;;;;;;;;;5133260;27;20235;-65
2022/09/20 06:56:13;;;;;;;8.20;3.83;;;;;;;;;;5133268;27;20225;-64
2022/09/20 06:58:40;;;;;;;5.57;4.00;;;;;;;;;;5118801;28;20200;-65
2022/09/20 07:01:12;;;;;;;7.00;3.70;;;;;;;;;;5112865;28;20292;-64
2022/09/20 07:03:40;;;;;;;5.87;3.47;;;;;;;;;;5112349;28;20500;-64
2022/09/20 07:06:08;;;;;;;5.80;3.57;;;;;;;;;;5112148;28;20203;-65
2022/09/20 07:08:35;;;;;;;5.57;3.50;;;;;;;;;;5112406;28;20309;-65
2022/09/20 07:11:03;;;;;;;9.23;4.13;;;;;;;;;;5112472;28;20290;-65
2022/09/20 07:13:31;;;;;;;6.03;3.87;;;;;;;;;;5112242;28;20203;-64
2022/09/20 07:16:05;;;;;;;5.97;3.40;;;;;;;;;;5112330;28;20234;-65
2022/09/20 07:18:33;;;;;;;6.77;3.70;;;;;;;;;;5112893;28;20211;-65
2022/09/20 07:21:01;;;;;;;6.97;3.37;;;;;;;;;;5112470;28;20200;-65
2022/09/20 07:23:29;;;;;;;5.60;3.90;;;;;;;;;;5112130;28;20755;-65
2022/09/20 07:25:59;;;;;;;4.33;3.80;;;;;;;;;;5112586;28;20225;-66
2022/09/20 07:28:28;;;;;;;9.17;5.00;;;;;;;;;;5112623;28;20241;-65
2022/09/20 07:30:55;;;;;;;6.70;5.20;;;;;;;;;;5112707;28;20286;-64
2022/09/20 07:33:23;;;;;;;10.77;6.10;;;;;;;;;;5111986;28;20236;-65
2022/09/20 07:35:53;;;;;;;10.63;6.43;;;;;;;;;;5114842;27;20596;-65
2022/09/20 07:38:21;;;;;;;13.53;7.50;;;;;;;;;;5116556;27;20235;-65
2022/09/20 07:40:56;;;;;;;13.20;8.30;;;;;;;;;;5115270;27;20665;-65
2022/09/20 07:43:24;;;;;;;13.70;8.23;;;;;;;;;;5115634;27;20293;-65
2022/09/20 07:45:54;;;;;;;11.23;8.57;;;;;;;;;;5115671;27;20246;-65
2022/09/20 07:48:23;;;;;;;14.47;9.83;;;;;;;;;;5133723;27;20619;-65
2022/09/20 07:50:55;;;;;;;15.03;10.10;;;;;;;;;;5116545;27;20737;-65
2022/09/20 07:53:22;;;;;;;16.07;11.07;;;;;;;;;;5136556;27;20282;-65
2022/09/20 07:56:00;;;;;;;18.57;10.87;;;;;;;;;;5112674;27;20230;-65
2022/09/20 07:58:28;;;;;;;17.27;10.73;;;;;;;;;;5115269;27;20214;-65
2022/09/20 08:00:56;;;;;;;16.80;11.33;;;;;;;;;;5111736;28;20238;-65
2022/09/20 08:03:24;;;;;;;15.13;10.30;;;;;;;;;;5115493;27;20199;-65
2022/09/20 08:05:58;;;;;;;15.03;11.83;;;;;;;;;;5114930;27;20240;-65
2022/09/20 08:08:25;;;;;;;17.97;10.63;;;;;;;;;;5115185;27;20305;-65
2022/09/20 08:10:54;;;;;;;13.03;9.07;;;;;;;;;;5115643;27;20287;-65
2022/09/20 08:13:21;;;;;;;9.97;8.13;;;;;;;;;;5115593;27;20235;-65
2022/09/20 08:16:09;;;;;;;11.03;8.50;;;;;;;;;;5117778;27;20559;-65
2022/09/20 08:18:37;;;;;;;10.63;7.67;;;;;;;;;;5115656;27;20210;-63
2022/09/20 08:21:05;;;;;;;11.23;7.87;;;;;;;;;;5115345;27;20286;-65
2022/09/20 08:23:37;;;;;;;8.60;7.20;;;;;;;;;;5114811;27;20196;-65
2022/09/20 08:26:05;;;;;;;11.93;6.90;;;;;;;;;;5126041;27;20679;-65
2022/09/20 08:28:34;;;;;;;14.63;7.03;;;;;;;;;;5114891;27;20247;-64
2022/09/20 08:31:05;;;;;;;13.63;7.33;;;;;;;;;;5114770;27;20706;-65
2022/09/20 08:33:35;;;;;;;11.93;7.40;;;;;;;;;;5115407;27;20210;-65
2022/09/20 08:36:03;;;;;;;13.50;7.20;;;;;;;;;;5112199;27;20270;-65
2022/09/20 08:38:34;;;;;;;11.43;6.70;;;;;;;;;;5113838;27;20295;-65
2022/09/20 08:41:30;;;;;;;11.83;7.93;;;;;;;;;;5116377;27;20203;-65
2022/09/20 08:44:00;;;;;;;15.47;7.10;;;;;;;;;;5117984;27;20546;-65
2022/09/20 08:46:29;;;;;;;13.13;6.17;;;;;;;;;;5113576;27;20694;-65
2022/09/20 08:48:56;;;;;;;8.57;6.80;;;;;;;;;;5114709;27;20228;-65
2022/09/20 08:51:29;;;;;;;18.10;6.33;;;;;;;;;;5113479;27;20196;-65
2022/09/20 08:53:57;;;;;;;12.17;6.63;;;;;;;;;;5114643;27;20651;-65
2022/09/20 08:56:32;;;;;;;9.73;6.13;;;;;;;;;;5114555;27;20303;-65
2022/09/20 08:58:59;;;;;;;11.80;6.13;;;;;;;;;;5133374;27;20223;-65
2022/09/20 09:01:30;;;;;;;8.60;6.07;;;;;;;;;;5114801;27;20207;-65
2022/09/20 09:04:01;;;;;;;9.23;5.97;;;;;;;;;;5114445;27;20228;-65
2022/09/20 09:06:29;;;;;;;10.50;4.77;;;;;;;;;;5113340;27;20276;-64
2022/09/20 09:08:57;;;;;;;6.97;5.63;;;;;;;;;;5114368;27;20545;-65
2022/09/20 09:11:25;;;;;;;7.73;4.60;;;;;;;;;;5114320;27;20291;-65
2022/09/20 09:14:47;;;;;;;7.80;3.60;;;;;;;;;;5113794;27;20215;-65
2022/09/20 09:16:57;;;;;;;8.00;3.30;;;;;;;;;;5139980;27;20261;-64
2022/09/20 09:19:29;;;;;;;7.27;3.13;;;;;;;;;;5113139;27;20256;-66
2022/09/20 09:22:01;;;;;;;5.70;2.60;;;;;;;;;;5114832;27;20199;-65
2022/09/20 09:24:32;;;;;;;5.87;2.90;;;;;;;;;;5113365;27;20314;-65
2022/09/20 09:27:17;;;;;;;4.30;2.97;;;;;;;;;;5113917;27;20339;-66
2022/09/20 09:29:53;;;;;;;3.70;2.43;;;;;;;;;;5124484;27;20196;-64
2022/09/20 09:32:22;;;;;;;5.30;2.93;;;;;;;;;;5128948;27;20282;-66
2022/09/20 09:34:50;;;;;;;6.43;2.70;;;;;;;;;;5131134;27;20314;-65
2022/09/20 09:37:26;;;;;;;4.47;2.50;;;;;;;;;;5134563;27;20278;-65
2022/09/20 09:40:17;;;;;;;4.90;3.07;;;;;;;;;;5108581;27;20297;-65
2022/09/20 09:42:53;;;;;;;5.83;2.70;;;;;;;;;;5113508;27;20248;-64
2022/09/20 09:45:25;;;;;;;5.17;2.27;;;;;;;;;;5113516;27;20302;-66
2022/09/20 09:47:53;;;;;;;4.73;2.23;;;;;;;;;;5112991;27;20223;-65
2022/09/20 09:50:25;;;;;;;4.30;2.60;;;;;;;;;;5118612;27;20286;-65
2022/09/20 09:53:09;;;;;;;4.43;2.63;;;;;;;;;;5134716;27;20234;-65
2022/09/20 09:55:43;;;;;;;2.43;2.10;;;;;;;;;;5133756;27;20223;-65
2022/09/20 09:58:30;;;;;;;5.00;2.47;;;;;;;;;;5123410;27;20217;-65
2022/09/20 10:01:00;;;;;;;3.87;2.50;;;;;;;;;;5130458;27;20726;-65
2022/09/20 10:03:30;;;;;;;4.27;2.40;;;;;;;;;;5114093;27;20207;-65
2022/09/20 10:06:07;;;;;;;2.87;2.10;;;;;;;;;;5112760;27;20214;-64
2022/09/20 10:08:53;;;;;;;5.07;2.30;;;;;;;;;;5132476;27;20231;-65
2022/09/20 10:11:23;;;;;;;4.97;2.20;;;;;;;;;;5114228;27;20205;-65
2022/09/20 10:14:09;;;;;;;2.90;2.20;;;;;;;;;;5113667;27;20306;-65
2022/09/20 10:16:46;;;;;;;3.93;1.40;;;;;;;;;;5113703;27;20290;-65
2022/09/20 10:19:23;;;;;;;4.63;1.90;;;;;;;;;;5113690;27;20266;-65
2022/09/20 10:21:51;;;;;;;6.07;1.83;;;;;;;;;;5113124;27;20207;-65
2022/09/20 10:24:37;;;;;;;3.13;1.70;;;;;;;;;;5118560;27;20305;-65
2022/09/20 10:27:10;;;;;;;4.83;1.83;;;;;;;;;;5133455;27;20297;-65
2022/09/20 10:29:38;;;;;;;3.43;1.70;;;;;;;;;;5105506;27;20207;-65
2022/09/20 10:32:17;;;;;;;4.43;1.77;;;;;;;;;;5112915;27;20756;-65
2022/09/20 10:34:57;;;;;;;5.67;1.93;;;;;;;;;;5113029;28;20211;-65
2022/09/20 10:37:51;;;;;;;5.37;2.53;;;;;;;;;;5112596;27;20299;-65
2022/09/20 10:43:56;;;;;;;3.47;1.50;;;;;;;;;;5076854;28;20319;-66
2022/09/20 10:46:31;;;;;;;3.40;1.63;;;;;;;;;;5095343;28;20265;-66
2022/09/20 10:49:19;;;;;;;4.50;1.40;;;;;;;;;;5093761;28;20717;-65
2022/09/20 10:51:46;;;;;;;2.97;1.20;;;;;;;;;;5106434;27;20231;-65
2022/09/20 10:54:33;;;;;;;1.90;1.30;;;;;;;;;;5112867;28;20230;-65
2022/09/20 10:57:20;;;;;;;3.97;1.80;;;;;;;;;;5112399;28;20244;-66
2022/09/20 11:00:03;;;;;;;3.03;1.60;;;;;;;;;;5127651;27;20286;-66
2022/09/20 11:02:37;;;;;;;2.33;1.57;;;;;;;;;;5112796;28;20203;-66
2022/09/20 11:05:19;;;;;;;5.07;1.70;;;;;;;;;;5112848;28;20220;-66
2022/09/20 11:07:59;;;;;;;4.33;1.60;;;;;;;;;;5112388;28;20691;-65
2022/09/20 11:10:38;;;;;;;6.03;1.60;;;;;;;;;;5115995;27;20613;-65
2022/09/20 11:13:12;;;;;;;5.40;1.50;;;;;;;;;;5129504;27;20282;-66
2022/09/20 11:16:09;;;;;;;3.87;1.90;;;;;;;;;;5117227;27;20301;-65
2022/09/20 11:18:39;;;;;;;4.43;1.67;;;;;;;;;;5095441;27;20214;-65
2022/09/20 11:21:10;;;;;;;1.70;1.50;;;;;;;;;;5116344;27;20294;-65
2022/09/20 11:23:44;;;;;;;5.17;1.47;;;;;;;;;;5116522;27;20673;-65
2022/09/20 11:26:16;;;;;;;8.50;1.70;;;;;;;;;;5116170;27;20279;-66
2022/09/20 11:28:45;;;;;;;6.87;2.07;;;;;;;;;;5115804;27;20709;-65
2022/09/20 11:31:28;;;;;;;6.40;2.07;;;;;;;;;;5115847;27;20199;-65
2022/09/20 11:34:08;;;;;;;6.30;2.07;;;;;;;;;;5127826;27;20242;-66
2022/09/20 11:36:38;;;;;;;3.20;1.60;;;;;;;;;;5108210;27;20270;-65
2022/09/20 11:39:12;;;;;;;3.90;1.90;;;;;;;;;;5116636;27;20203;-65
2022/09/20 11:41:40;;;;;;;2.70;1.43;;;;;;;;;;5115874;27;20194;-65
2022/09/20 11:44:11;;;;;;;3.40;1.60;;;;;;;;;;5111894;27;20333;-65
2022/09/20 11:46:57;;;;;;;3.63;1.50;;;;;;;;;;5095581;28;20757;-65
2022/09/20 11:49:33;;;;;;;3.73;1.53;;;;;;;;;;5101841;27;20253;-65
2022/09/20 11:52:04;;;;;;;2.60;1.60;;;;;;;;;;5115934;27;20754;-65
2022/09/20 11:54:53;;;;;;;2.80;1.77;;;;;;;;;;5134047;27;20708;-66
2022/09/20 11:57:21;;;;;;;2.47;1.33;;;;;;;;;;5115835;27;20227;-64
2022/09/20 11:59:52;;;;;;;2.60;1.70;;;;;;;;;;5115867;27;20308;-66
2022/09/20 12:02:32;;;;;;;2.93;2.00;;;;;;;;;;5115647;27;20204;-65
2022/09/20 12:05:00;;;;;;;2.93;1.57;;;;;;;;;;5115153;27;20573;-65
2022/09/20 12:07:28;;;;;;;3.63;1.60;;;;;;;;;;5129637;27;20202;-65
2022/09/20 12:10:00;;;;;;;1.90;1.40;;;;;;;;;;5136544;27;20223;-66
2022/09/20 12:12:46;;;;;;;4.20;1.50;;;;;;;;;;5121399;27;20290;-65
2022/09/20 12:15:26;;;;;;;5.83;1.70;;;;;;;;;;5115016;27;20219;-65
2022/09/20 12:17:56;;;;;;;4.47;1.37;;;;;;;;;;5111746;28;20200;-65
2022/09/20 12:20:33;;;;;;;2.57;1.47;;;;;;;;;;5113476;28;20207;-65
2022/09/20 12:23:30;;;;;;;3.90;1.50;;;;;;;;;;5115984;27;20260;-65
2022/09/20 12:25:59;;;;;;;3.58;1.45;;;;;;;;;;5094607;27;20291;-65
2022/09/20 12:28:33;;;;;;;3.50;1.30;;;;;;;;;;5114797;27;20310;-66
2022/09/20 12:31:24;;;;;;;3.85;1.50;;;;;;;;;;5120209;27;20237;-65
2022/09/20 12:34:01;;;;;;;4.60;1.30;;;;;;;;;;5115351;27;20751;-65
2022/09/20 12:36:30;;;;;;;3.33;1.30;;;;;;;;;;5114415;27;20767;-65
2022/09/20 12:38:59;;;;;;;4.40;1.58;;;;;;;;;;5115394;27;20232;-66
2022/09/20 12:41:27;;;;;;;4.38;1.40;;;;;;;;;;5118424;27;20299;-65
2022/09/20 12:44:00;;;;;;;4.35;1.60;;;;;;;;;;5115327;27;20223;-65
2022/09/20 12:46:30;;;;;;;3.58;1.38;;;;;;;;;;5114467;27;20676;-65
2022/09/20 12:52:49;;;;;;;2.95;1.38;;;;;;;;;;5115270;27;20313;-65
2022/09/20 12:54:52;;;;;;;5.95;1.67;;;;;;;;;;5126630;27;20247;-65
2022/09/20 12:57:31;;;;;;;3.15;1.40;;;;;;;;;;5114739;27;20293;-65
2022/09/20 13:00:00;;;;;;;2.25;1.58;;;;;;;;;;5114711;27;20672;-65
2022/09/20 13:02:41;;;;;;;5.15;1.90;;;;;;;;;;5114404;27;20300;-65
2022/09/20 13:05:31;;;;;;;3.70;1.50;;;;;;;;;;5113872;27;20310;-65
2022/09/20 13:08:17;;;;;;;3.92;1.40;;;;;;;;;;5115279;27;20192;-65
2022/09/20 13:11:16;;;;;;;5.25;1.55;;;;;;;;;;5108502;27;20210;-65
2022/09/20 13:13:49;;;;;;;5.78;1.50;;;;;;;;;;5114510;27;20753;-65
2022/09/20 13:16:36;;;;;;;2.97;1.60;;;;;;;;;;5094147;28;20232;-65
2022/09/20 13:19:06;;;;;;;3.30;1.50;;;;;;;;;;5063819;27;20321;-65
2022/09/20 13:21:36;;;;;;;4.32;1.48;;;;;;;;;;5114444;27;20248;-65
2022/09/20 13:24:04;;;;;;;2.72;1.60;;;;;;;;;;5114002;27;20314;-66
2022/09/20 13:26:41;;;;;;;3.97;1.65;;;;;;;;;;5132429;27;20337;-66
2022/09/20 13:29:10;;;;;;;2.75;1.38;;;;;;;;;;5114169;27;20215;-65
2022/09/20 13:31:37;;;;;;;5.00;1.40;;;;;;;;;;5117925;27;20290;-66
2022/09/20 13:34:18;;;;;;;3.45;1.60;;;;;;;;;;5114396;27;20224;-66
2022/09/20 13:36:45;;;;;;;2.17;1.60;;;;;;;;;;5114142;27;20213;-66
2022/09/20 13:39:30;;;;;;;2.83;1.40;;;;;;;;;;5113226;27;20294;-66
2022/09/20 13:42:05;;;;;;;4.82;1.60;;;;;;;;;;5113838;27;20642;-67
2022/09/20 13:44:33;;;;;;;4.85;1.77;;;;;;;;;;5113236;27;20720;-65
2022/09/20 13:47:01;;;;;;;5.23;1.60;;;;;;;;;;5113010;27;20672;-66
2022/09/20 13:49:30;;;;;;;5.38;1.85;;;;;;;;;;5114103;27;20639;-65
2022/09/20 13:51:58;;;;;;;3.88;1.52;;;;;;;;;;5114009;27;20286;-65
2022/09/20 13:54:30;;;;;;;5.85;1.50;;;;;;;;;;5113349;27;20222;-65
2022/09/20 13:57:02;;;;;;;1.92;1.60;;;;;;;;;;5113133;27;20201;-65
2022/09/20 13:59:32;;;;;;;3.90;1.40;;;;;;;;;;5113070;27;20280;-66
2022/09/20 14:02:00;;;;;;;4.47;1.52;;;;;;;;;;5113771;27;20210;-64
2022/09/20 14:04:29;;;;;;;6.97;1.50;;;;;;;;;;5113365;27;20223;-65
2022/09/20 14:06:58;;;;;;;3.05;1.42;;;;;;;;;;5131111;27;20207;-65
2022/09/20 14:09:37;;;;;;;4.60;1.48;;;;;;;;;;5133699;27;20307;-66
2022/09/20 14:12:05;;;;;;;5.28;1.60;;;;;;;;;;5134117;27;20206;-66
2022/09/20 14:14:33;;;;;;;6.30;1.55;;;;;;;;;;5133594;27;20313;-65
2022/09/20 14:17:04;;;;;;;3.33;1.33;;;;;;;;;;5116908;27;20257;-66
2022/09/20 14:19:39;;;;;;;2.38;1.50;;;;;;;;;;5104484;27;20668;-66
2022/09/20 14:22:08;;;;;;;3.35;1.30;;;;;;;;;;5113864;27;20207;-66
2022/09/20 14:24:36;;;;;;;2.63;1.42;;;;;;;;;;5112718;27;20229;-66
2022/09/20 14:27:14;;;;;;;3.17;1.45;;;;;;;;;;5128970;27;20278;-66
2022/09/20 14:29:42;;;;;;;2.20;1.52;;;;;;;;;;5112872;27;20251;-66
2022/09/20 14:32:24;;;;;;;4.07;1.58;;;;;;;;;;5113197;27;20221;-66
2022/09/20 14:35:00;;;;;;;2.95;1.48;;;;;;;;;;5113064;27;20604;-66
2022/09/20 14:37:33;;;;;;;6.13;3.63;;;;;;;;;;5112675;27;20669;-66
2022/09/20 14:40:02;;;;;;;3.45;1.35;;;;;;;;;;5123293;27;20206;-65
2022/09/20 14:42:33;;;;;;;2.50;1.30;;;;;;;;;;5125515;27;20200;-66
2022/09/20 14:45:02;;;;;;;5.47;1.48;;;;;;;;;;5112027;27;20623;-66
2022/09/20 14:47:39;;;;;;;2.70;1.60;;;;;;;;;;5112472;27;20756;-66
2022/09/20 14:50:25;;;;;;;4.60;1.58;;;;;;;;;;5112891;28;20229;-66
2022/09/20 14:53:20;;;;;;;3.17;1.30;;;;;;;;;;5112945;28;20203;-66
2022/09/20 14:55:55;;;;;;;3.53;1.50;;;;;;;;;;5127012;27;20794;-65
2022/09/20 14:58:25;;;;;;;2.40;1.48;;;;;;;;;;5131066;28;20288;-65
2022/09/20 15:01:01;;;;;;;2.80;1.58;;;;;;;;;;5131047;28;20282;-65
2022/09/20 15:03:33;;;;;;;3.72;1.60;;;;;;;;;;5113494;28;20206;-66
2022/09/20 15:06:01;;;;;;;2.88;1.70;;;;;;;;;;5112044;28;20208;-65
2022/09/20 15:08:28;;;;;;;4.35;1.65;;;;;;;;;;5113501;28;20294;-66
2022/09/20 15:10:55;;;;;;;2.58;1.60;;;;;;;;;;5131134;28;20229;-65
2022/09/20 15:13:23;;;;;;;5.93;1.50;;;;;;;;;;5136510;27;20505;-66
2022/09/20 15:15:52;;;;;;;2.33;1.48;;;;;;;;;;5132940;27;20223;-66
2022/09/20 15:18:25;;;;;;;1.98;1.30;;;;;;;;;;5122912;28;20307;-65
2022/09/20 15:20:53;;;;;;;2.30;1.40;;;;;;;;;;5130924;28;20232;-65
2022/09/20 15:23:20;;;;;;;4.33;1.67;;;;;;;;;;5112608;28;20282;-66
2022/09/20 15:25:51;;;;;;;2.57;1.80;;;;;;;;;;5112452;28;20294;-66
2022/09/20 15:28:19;;;;;;;3.73;1.60;;;;;;;;;;5112785;28;20286;-65
2022/09/20 15:30:48;;;;;;;2.47;1.43;;;;;;;;;;5121012;27;20250;-66
2022/09/20 15:33:16;;;;;;;3.87;1.63;;;;;;;;;;5132411;27;20234;-65
2022/09/20 15:35:44;;;;;;;4.30;1.70;;;;;;;;;;5132721;27;20624;-65
2022/09/20 15:38:12;;;;;;;2.60;1.70;;;;;;;;;;5132793;27;20638;-64
2022/09/20 15:40:40;;;;;;;2.10;1.77;;;;;;;;;;5133176;27;20286;-65